Time;durP1;ratioP1;P1;durP2;ratioP2;P2;SDS_P1;SDS_P2;PMS_P1;PMS_P2;Temp;Humidity;BMP_temperature;BMP_pressure;BME280_temperature;BME280_humidity;BME280_pressure;Samples;Min_cycle;Max_cycle;Signal;HPM_P1;HPM_P2
2023/07/22 00:01:11;;;;;;;7.60;4.30;;;;;;;15.76;100.00;100286.21;105250;1258;71462;-65
2023/07/22 00:03:38;;;;;;;5.50;4.10;;;;;;;15.72;100.00;100287.35;105128;1256;61344;-65
2023/07/22 00:06:10;;;;;;;6.30;4.30;;;;;;;15.68;100.00;100290.38;105146;1256;61186;-66
2023/07/22 00:08:38;;;;;;;6.10;3.90;;;;;;;15.63;100.00;100293.70;104967;1257;73547;-65
2023/07/22 00:11:05;;;;;;;5.40;4.50;;;;;;;15.59;100.00;100298.11;105092;1257;67195;-65
2023/07/22 00:13:32;;;;;;;4.70;4.20;;;;;;;15.55;100.00;100297.92;105169;1259;71577;-65
2023/07/22 00:15:59;;;;;;;5.30;3.80;;;;;;;15.52;100.00;100308.25;105118;1257;61336;-64
2023/07/22 00:18:27;;;;;;;5.10;3.30;;;;;;;15.52;100.00;100312.59;105411;1259;61535;-70
2023/07/22 00:20:54;;;;;;;4.90;3.50;;;;;;;15.53;100.00;100313.95;104908;1255;73369;-65
2023/07/22 00:23:21;;;;;;;5.30;3.40;;;;;;;15.55;100.00;100310.91;105163;1257;65762;-64
2023/07/22 00:25:49;;;;;;;5.20;3.60;;;;;;;15.56;100.00;100310.37;105448;1258;71525;-65
2023/07/22 00:28:16;;;;;;;7.70;4.00;;;;;;;15.57;100.00;100318.15;105152;1259;61266;-68
2023/07/22 00:30:43;;;;;;;4.90;3.50;;;;;;;15.56;100.00;100321.36;104805;1259;61155;-65
2023/07/22 00:33:11;;;;;;;5.70;3.20;;;;;;;15.56;100.00;100319.27;105186;1256;73340;-64
2023/07/22 00:35:38;;;;;;;5.40;3.60;;;;;;;15.56;100.00;100323.91;105086;1259;65862;-65
2023/07/22 00:38:05;;;;;;;6.00;3.40;;;;;;;15.54;100.00;100320.83;105254;1257;72625;-63
2023/07/22 00:40:32;;;;;;;6.20;3.60;;;;;;;15.51;100.00;100319.83;104839;1255;61924;-69
2023/07/22 00:43:00;;;;;;;4.50;3.40;;;;;;;15.47;100.00;100321.77;105155;1259;61751;-64
2023/07/22 00:45:27;;;;;;;5.00;3.50;;;;;;;15.44;100.00;100323.97;105214;1259;74504;-64
2023/07/22 00:47:54;;;;;;;4.70;3.90;;;;;;;15.41;100.00;100326.61;105250;1259;65403;-64
2023/07/22 00:50:21;;;;;;;6.10;4.10;;;;;;;15.38;100.00;100329.19;105006;1256;72851;-63
2023/07/22 00:52:48;;;;;;;7.20;4.10;;;;;;;15.36;100.00;100337.29;105103;1256;61397;-69
2023/07/22 00:55:15;;;;;;;5.70;3.70;;;;;;;15.31;100.00;100337.64;105304;1256;61122;-63
2023/07/22 00:57:42;;;;;;;6.40;4.00;;;;;;;15.29;100.00;100339.70;105227;1257;73514;-65
2023/07/22 01:00:11;;;;;;;6.20;4.00;;;;;;;15.26;100.00;100341.05;105403;1257;67138;-69
2023/07/22 01:02:40;;;;;;;6.20;4.50;;;;;;;15.22;100.00;100342.05;105430;1257;73556;-69
2023/07/22 01:05:10;;;;;;;6.70;4.10;;;;;;;15.18;100.00;100342.02;105218;1257;61884;-64
2023/07/22 01:07:40;;;;;;;5.80;4.10;;;;;;;15.14;100.00;100341.92;105010;1256;61324;-65
2023/07/22 01:10:08;;;;;;;6.50;4.50;;;;;;;15.10;100.00;100347.77;105241;1259;74414;-64
2023/07/22 01:12:36;;;;;;;7.20;4.50;;;;;;;15.07;100.00;100352.55;105145;1257;66969;-70
2023/07/22 01:15:07;;;;;;;6.20;4.10;;;;;;;15.04;100.00;100355.60;105088;1257;72690;-65
2023/07/22 01:17:36;;;;;;;3.90;3.20;;;;;;;15.01;100.00;100358.08;105004;1257;61675;-64
2023/07/22 01:20:04;;;;;;;5.40;3.30;;;;;;;14.99;100.00;100361.63;105031;1262;61359;-66
2023/07/22 01:22:35;;;;;;;5.90;4.30;;;;;;;14.97;100.00;100362.79;105336;1255;73477;-69
2023/07/22 01:25:03;;;;;;;4.60;3.90;;;;;;;14.96;100.00;100363.50;105156;1261;65719;-63
2023/07/22 01:27:30;;;;;;;5.10;3.90;;;;;;;14.95;100.00;100364.63;105129;1257;72729;-64
2023/07/22 01:29:57;;;;;;;5.90;3.70;;;;;;;14.94;100.00;100363.91;105247;1257;61902;-65
2023/07/22 01:32:24;;;;;;;4.90;4.10;;;;;;;14.93;100.00;100373.62;105220;1261;61242;-69
2023/07/22 01:34:52;;;;;;;7.50;4.20;;;;;;;14.89;100.00;100377.19;105178;1260;74737;-66
2023/07/22 01:37:19;;;;;;;5.70;4.60;;;;;;;14.86;100.00;100385.32;105199;1257;67191;-65
2023/07/22 01:39:46;;;;;;;7.70;4.80;;;;;;;14.83;100.00;100386.77;105155;1259;71544;-64
2023/07/22 01:42:13;;;;;;;5.70;4.20;;;;;;;14.81;100.00;100386.17;105221;1257;61834;-64
2023/07/22 01:44:41;;;;;;;5.10;4.00;;;;;;;14.78;100.00;100387.16;105459;1257;61186;-65
2023/07/22 01:47:08;;;;;;;5.30;4.40;;;;;;;14.75;100.00;100391.48;105016;1260;74500;-66
2023/07/22 01:49:35;;;;;;;7.80;4.30;;;;;;;14.75;100.00;100396.14;104941;1257;66086;-64
2023/07/22 01:52:03;;;;;;;7.70;4.10;;;;;;;14.74;100.00;100395.70;105095;1257;71793;-64
2023/07/22 01:54:30;;;;;;;7.30;4.70;;;;;;;14.73;100.00;100397.23;105390;1256;60277;-66
2023/07/22 01:56:57;;;;;;;8.30;4.60;;;;;;;14.72;100.00;100395.20;105014;1257;61310;-64
2023/07/22 01:59:24;;;;;;;6.40;4.40;;;;;;;14.72;100.00;100395.33;105150;1257;73406;-65
2023/07/22 02:01:51;;;;;;;5.50;4.20;;;;;;;14.71;100.00;100397.48;105135;1258;65673;-65
2023/07/22 02:04:18;;;;;;;7.40;4.90;;;;;;;14.72;100.00;100388.38;105384;1259;71295;-69
2023/07/22 02:06:46;;;;;;;6.00;4.40;;;;;;;14.77;100.00;100384.93;104942;1259;61314;-64
2023/07/22 02:09:13;;;;;;;8.40;4.20;;;;;;;14.91;100.00;100385.59;105050;1260;61257;-64
2023/07/22 02:11:40;;;;;;;6.70;4.20;;;;;;;15.13;100.00;100386.98;105154;1256;74668;-66
2023/07/22 02:14:08;;;;;;;5.50;4.10;;;;;;;15.40;100.00;100383.60;105782;1259;66575;-65
2023/07/22 02:16:36;;;;;;;5.50;4.60;;;;;;;15.70;100.00;100384.10;104817;1257;74056;-64
2023/07/22 02:19:03;;;;;;;6.20;4.30;;;;;;;16.04;100.00;100383.23;104998;1257;62010;-65
2023/07/22 02:21:37;;;;;;;5.40;3.90;;;;;;;16.41;100.00;100386.83;105208;1257;61254;-64
2023/07/22 02:24:04;;;;;;;8.00;3.70;;;;;;;16.78;100.00;100386.03;105598;1257;74686;-66
2023/07/22 02:26:31;;;;;;;6.90;4.10;;;;;;;17.18;100.00;100385.18;105034;1257;66977;-65
2023/07/22 02:28:58;;;;;;;6.10;3.70;;;;;;;17.54;100.00;100384.20;105140;1257;70767;-64
2023/07/22 02:31:26;;;;;;;5.00;3.50;;;;;;;17.90;100.00;100376.91;105002;1257;61375;-64
2023/07/22 02:33:53;;;;;;;4.90;3.30;;;;;;;18.23;100.00;100374.58;105164;1256;61270;-71
2023/07/22 02:36:20;;;;;;;24.90;8.40;;;;;;;18.53;100.00;100371.14;105155;1255;73113;-71
2023/07/22 02:38:47;;;;;;;8.10;4.60;;;;;;;18.68;100.00;100368.51;104964;1261;65998;-66
2023/07/22 02:41:14;;;;;;;66.60;16.00;;;;;;;18.71;100.00;100363.70;105088;1261;72325;-64
2023/07/22 02:43:41;;;;;;;53.60;17.20;;;;;;;18.71;100.00;100358.02;105098;1257;61446;-66
2023/07/22 02:46:09;;;;;;;8.20;5.30;;;;;;;18.67;100.00;100354.31;105289;1256;61251;-70
2023/07/22 02:48:36;;;;;;;160.20;31.20;;;;;;;18.58;100.00;100350.13;105310;1257;73480;-72
2023/07/22 02:51:09;;;;;;;381.70;119.50;;;;;;;18.46;100.00;100346.17;104839;1259;216198;-67
2023/07/22 02:53:38;;;;;;;202.20;43.40;;;;;;;18.38;100.00;100344.50;104946;1257;72710;-66
2023/07/22 02:56:08;;;;;;;5.80;4.00;;;;;;;18.38;100.00;100344.96;104935;1257;62892;-65
2023/07/22 02:58:36;;;;;;;5.90;3.70;;;;;;;18.40;100.00;100345.16;105122;1257;61244;-71
2023/07/22 03:01:08;;;;;;;40.10;13.10;;;;;;;18.55;100.00;100344.14;105016;1259;74728;-66
2023/07/22 03:03:36;;;;;;;381.40;125.40;;;;;;;18.96;100.00;100340.32;105532;1255;66114;-70
2023/07/22 03:06:04;;;;;;;334.50;99.10;;;;;;;19.47;100.00;100342.00;104706;1257;73399;-64
2023/07/22 03:08:31;;;;;;;13.40;6.40;;;;;;;20.05;100.00;100346.14;105362;1255;61166;-68
2023/07/22 03:10:58;;;;;;;380.60;114.80;;;;;;;20.61;100.00;100333.54;105125;1256;61161;-64
2023/07/22 03:13:29;;;;;;;681.90;273.70;;;;;;;21.17;100.00;100328.93;105157;1259;74539;-64
2023/07/22 03:15:57;;;;;;;1230.40;450.90;;;;;;;21.74;100.00;100319.29;105159;1259;65742;-64
2023/07/22 03:18:25;;;;;;;1418.80;514.60;;;;;;;22.33;100.00;100313.73;105416;1257;72768;-66
2023/07/22 03:20:51;;;;;;;1908.50;760.40;;;;;;;22.99;100.00;100301.08;104702;1256;61226;-64
2023/07/22 03:23:19;;;;;;;1861.20;734.10;;;;;;;23.69;100.00;100290.82;105130;1255;61256;-64
2023/07/22 03:25:47;;;;;;;1999.90;850.30;;;;;;;24.42;100.00;100283.89;105197;1259;73453;-66
2023/07/22 03:28:14;;;;;;;1999.90;883.00;;;;;;;25.16;100.00;100278.42;104961;1256;67211;-64
2023/07/22 03:30:41;;;;;;;1999.90;821.20;;;;;;;25.92;100.00;100276.70;105073;1257;72582;-69
2023/07/22 03:33:09;;;;;;;1999.90;890.40;;;;;;;26.67;100.00;100280.74;104950;1258;61250;-65
2023/07/22 03:35:36;;;;;;;1980.40;804.20;;;;;;;27.46;100.00;100277.87;105460;1257;61110;-64
2023/07/22 03:38:04;;;;;;;1993.70;798.20;;;;;;;28.26;100.00;100277.27;105173;1262;74284;-65
2023/07/22 03:40:32;;;;;;;1966.20;807.40;;;;;;;29.00;100.00;100277.38;105365;1257;67065;-66
2023/07/22 03:42:59;;;;;;;1577.40;663.40;;;;;;;29.79;100.00;100281.44;104727;1257;72723;-64
2023/07/22 03:45:27;;;;;;;1410.30;671.70;;;;;;;30.47;100.00;100287.70;105235;1255;61972;-64
2023/07/22 03:47:57;;;;;;;1264.80;596.70;;;;;;;30.87;100.00;100285.59;105016;1257;61291;-63
2023/07/22 03:50:24;;;;;;;1084.30;537.40;;;;;;;31.18;99.01;100279.81;105421;1256;73574;-69
2023/07/22 03:52:51;;;;;;;992.60;530.90;;;;;;;31.46;94.52;100284.77;104946;1260;66022;-63
2023/07/22 03:55:19;;;;;;;670.20;374.10;;;;;;;31.84;90.28;100292.41;105287;1257;72701;-64
2023/07/22 03:57:46;;;;;;;785.90;455.30;;;;;;;32.28;81.97;100289.48;105249;1256;61144;-64
2023/07/22 04:00:13;;;;;;;653.60;353.90;;;;;;;32.65;75.42;100285.16;105430;1259;61243;-68
2023/07/22 04:02:41;;;;;;;500.10;282.60;;;;;;;33.03;70.10;100287.44;105094;1256;64907;-64
2023/07/22 04:05:09;;;;;;;449.90;258.80;;;;;;;33.36;64.99;100291.05;105154;1257;61162;-65
2023/07/22 04:07:36;;;;;;;388.20;239.40;;;;;;;33.70;60.08;100291.55;105054;1256;73040;-63
2023/07/22 04:10:07;;;;;;;380.80;238.80;;;;;;;34.02;56.56;100288.38;105247;1259;61496;-69
2023/07/22 04:12:35;;;;;;;346.80;218.70;;;;;;;34.30;54.44;100287.54;104971;1259;61234;-64
2023/07/22 04:15:03;;;;;;;187.20;115.40;;;;;;;34.63;50.87;100290.17;105063;1257;64820;-64
2023/07/22 04:17:31;;;;;;;194.60;134.00;;;;;;;34.83;48.92;100298.72;105047;1260;61288;-64
2023/07/22 04:19:59;;;;;;;178.70;138.00;;;;;;;35.05;46.62;100303.49;105096;1260;64412;-63
2023/07/22 04:22:25;;;;;;;131.20;90.10;;;;;;;35.23;45.37;100307.84;105187;1257;61263;-66
2023/07/22 04:24:52;;;;;;;103.50;76.30;;;;;;;35.40;43.97;100305.78;104860;1257;61344;-65
2023/07/22 04:27:20;;;;;;;117.90;90.00;;;;;;;35.57;43.58;100301.52;105123;1256;66138;-64
2023/07/22 04:29:47;;;;;;;110.40;77.50;;;;;;;35.87;42.59;100293.41;105087;1259;61348;-63
2023/07/22 04:32:15;;;;;;;81.30;69.30;;;;;;;36.25;40.64;100295.71;105006;1257;72200;-64
2023/07/22 04:34:42;;;;;;;57.20;43.70;;;;;;;36.49;38.81;100293.13;105252;1257;61359;-63
2023/07/22 04:37:09;;;;;;;36.10;31.40;;;;;;;36.55;38.19;100283.48;105220;1257;61228;-64
2023/07/22 04:39:37;;;;;;;57.40;49.90;;;;;;;36.47;38.41;100289.43;105189;1255;64842;-63
2023/07/22 04:42:04;;;;;;;46.20;41.50;;;;;;;36.30;38.85;100291.33;105185;1256;61251;-63
2023/07/22 04:44:32;;;;;;;56.90;50.60;;;;;;;36.21;39.10;100289.11;105456;1259;64991;-64
2023/07/22 04:46:59;;;;;;;44.40;39.90;;;;;;;36.12;38.77;100291.70;105044;1261;61698;-64
2023/07/22 04:49:27;;;;;;;41.10;37.30;;;;;;;36.01;38.69;100291.40;105199;1257;61121;-64
2023/07/22 04:51:55;;;;;;;23.50;21.20;;;;;;;35.96;38.32;100292.14;105495;1257;64911;-67
2023/07/22 04:54:22;;;;;;;33.20;29.90;;;;;;;36.05;38.65;100291.63;105401;1259;61254;-65
2023/07/22 04:56:49;;;;;;;43.60;38.90;;;;;;;36.34;38.35;100286.13;104926;1257;62487;-66
2023/07/22 04:59:16;;;;;;;39.60;35.20;;;;;;;36.71;37.75;100276.64;105282;1259;61212;-64
2023/07/22 05:01:43;;;;;;;37.00;33.00;;;;;;;37.07;36.59;100275.61;105476;1259;61256;-64
2023/07/22 05:04:11;;;;;;;28.90;25.80;;;;;;;37.37;35.48;100269.29;105381;1257;64566;-70
2023/07/22 05:06:38;;;;;;;21.80;19.80;;;;;;;37.67;35.24;100273.02;105563;1260;61227;-70
2023/07/22 05:09:05;;;;;;;27.50;21.10;;;;;;;37.98;34.46;100269.52;105405;1257;64440;-66
2023/07/22 05:11:33;;;;;;;20.60;16.90;;;;;;;38.33;33.54;100270.77;105295;1257;61224;-65
2023/07/22 05:14:01;;;;;;;142.00;97.70;;;;;;;38.51;32.54;100272.39;105244;1256;61333;-71
2023/07/22 05:16:28;;;;;;;89.70;63.50;;;;;;;38.66;32.17;100268.75;105215;1257;75399;-63
2023/07/22 05:18:56;;;;;;;140.80;93.80;;;;;;;38.79;31.98;100265.06;105239;1256;61566;-64
2023/07/22 05:21:23;;;;;;;133.90;96.80;;;;;;;38.97;31.69;100265.11;105245;1259;63920;-63
2023/07/22 05:23:50;;;;;;;81.40;57.10;;;;;;;39.23;30.93;100267.37;105354;1256;61326;-63
2023/07/22 05:26:17;;;;;;;95.50;68.00;;;;;;;39.52;30.43;100272.83;105375;1257;61271;-63
2023/07/22 05:28:44;;;;;;;87.70;62.50;;;;;;;39.85;30.11;100270.39;105490;1259;66059;-63
2023/07/22 05:31:11;;;;;;;94.90;72.00;;;;;;;40.16;29.53;100268.94;105024;1259;61395;-63
2023/07/22 05:33:39;;;;;;;77.00;55.70;;;;;;;40.45;28.86;100265.92;105174;1259;72476;-63
2023/07/22 05:36:06;;;;;;;62.50;51.20;;;;;;;40.76;28.19;100265.39;105206;1257;61266;-64
2023/07/22 05:38:33;;;;;;;51.20;45.40;;;;;;;40.93;27.63;100263.23;105276;1257;61224;-63
2023/07/22 05:41:00;;;;;;;33.80;30.30;;;;;;;41.03;27.42;100267.23;105120;1259;66407;-68
2023/07/22 05:43:27;;;;;;;45.60;38.60;;;;;;;41.07;27.12;100273.81;105166;1258;61275;-64
2023/07/22 05:45:54;;;;;;;37.80;28.70;;;;;;;41.11;26.80;100274.66;105354;1259;63867;-66
2023/07/22 05:48:21;;;;;;;45.20;40.50;;;;;;;41.21;26.76;100273.27;107521;1257;61367;-63
2023/07/22 05:50:49;;;;;;;39.00;30.90;;;;;;;41.29;26.32;100271.55;105159;1257;61528;-68
2023/07/22 05:53:16;;;;;;;37.20;33.30;;;;;;;41.30;26.14;100268.64;105298;1255;64717;-63
2023/07/22 05:55:43;;;;;;;45.70;41.40;;;;;;;41.31;26.27;100267.30;105247;1257;61352;-66
2023/07/22 05:58:17;;;;;;;29.90;26.80;;;;;;;41.39;26.02;100269.28;105144;1257;64062;-63
2023/07/22 06:00:46;;;;;;;39.10;35.10;;;;;;;41.57;25.79;100264.42;105564;1259;61132;-65
2023/07/22 06:03:13;;;;;;;28.90;26.40;;;;;;;41.70;25.64;100260.25;105266;1257;61409;-63
2023/07/22 06:05:40;;;;;;;27.20;23.60;;;;;;;41.86;25.02;100259.45;105285;1259;66072;-68
2023/07/22 06:08:07;;;;;;;36.80;32.90;;;;;;;41.96;24.64;100256.52;105157;1257;61247;-63
2023/07/22 06:10:37;;;;;;;18.80;16.90;;;;;;;41.98;24.49;100251.98;105335;1257;63829;-65
2023/07/22 06:13:04;;;;;;;;;;;;;;;41.99;24.35;100246.80;105109;1259;61263;-63
2023/07/22 06:15:32;;;;;;;21.70;19.60;;;;;;;41.91;24.19;100246.98;105234;1256;61212;-66
2023/07/22 06:18:00;;;;;;;29.00;12.20;;;;;;;41.78;24.24;100247.55;105102;1259;66689;-63
2023/07/22 06:20:27;;;;;;;3.50;2.80;;;;;;;41.75;24.10;100243.48;105225;1259;61214;-67
2023/07/22 06:22:54;;;;;;;3.50;2.40;;;;;;;41.68;23.85;100240.07;104940;1261;62708;-64
2023/07/22 06:25:22;;;;;;;3.90;2.80;;;;;;;41.68;24.04;100245.47;105215;1256;61243;-64
2023/07/22 06:27:48;;;;;;;2.90;2.60;;;;;;;41.72;23.41;100248.35;105220;1257;61247;-63
2023/07/22 06:30:15;;;;;;;2.60;2.10;;;;;;;41.53;23.05;100242.14;105152;1256;65889;-67
2023/07/22 06:32:43;;;;;;;3.70;2.60;;;;;;;41.22;23.39;100244.73;104972;1262;61638;-65
2023/07/22 06:35:10;;;;;;;2.40;1.90;;;;;;;41.07;23.66;100240.77;105157;1257;62906;-64
2023/07/22 06:37:37;;;;;;;3.30;2.60;;;;;;;41.05;23.61;100235.92;105074;1257;61350;-64
2023/07/22 06:40:05;;;;;;;2.90;2.70;;;;;;;41.09;23.68;100234.34;105039;1260;61164;-65
2023/07/22 06:42:32;;;;;;;3.50;2.20;;;;;;;41.12;23.67;100234.36;105121;1257;64653;-68
2023/07/22 06:45:00;;;;;;;2.80;2.40;;;;;;;41.14;23.48;100239.59;105201;1257;61229;-64
2023/07/22 06:47:27;;;;;;;2.30;2.10;;;;;;;41.18;23.51;100235.52;105106;1257;62905;-63
2023/07/22 06:49:54;;;;;;;2.80;2.20;;;;;;;41.27;23.15;100235.83;104806;1257;61244;-68
2023/07/22 06:52:21;;;;;;;3.00;2.20;;;;;;;41.41;22.34;100232.08;105122;1260;61647;-64
2023/07/22 06:54:49;;;;;;;3.40;2.20;;;;;;;41.54;22.13;100228.38;105316;1258;66392;-64
2023/07/22 06:57:15;;;;;;;2.70;1.80;;;;;;;41.42;22.88;100229.56;105279;1254;61256;-64
2023/07/22 06:59:43;;;;;;;2.60;2.40;;;;;;;41.29;22.60;100222.85;105038;1260;62648;-63
2023/07/22 07:02:10;;;;;;;3.80;2.50;;;;;;;41.18;22.62;100218.65;105266;1260;61224;-63
2023/07/22 07:04:39;;;;;;;3.00;2.40;;;;;;;40.75;23.34;100223.92;105666;1254;61106;-65
2023/07/22 07:07:06;;;;;;;5.00;2.40;;;;;;;40.44;23.84;100230.56;105023;1256;65996;-64
2023/07/22 07:09:35;;;;;;;11.30;2.80;;;;;;;40.12;24.16;100233.48;105094;1257;61247;-64
2023/07/22 07:12:04;;;;;;;3.70;2.30;;;;;;;39.93;24.12;100231.92;105058;1257;72914;-64
2023/07/22 07:14:32;;;;;;;3.20;2.40;;;;;;;39.97;23.71;100229.44;105084;1255;61413;-63
2023/07/22 07:17:00;;;;;;;4.30;2.60;;;;;;;40.01;24.36;100227.04;105149;1257;61208;-65
2023/07/22 07:19:28;;;;;;;2.50;2.10;;;;;;;39.98;24.56;100223.50;105211;1259;66327;-68
2023/07/22 07:21:55;;;;;;;2.30;2.00;;;;;;;40.10;24.72;100224.81;105119;1257;61329;-64
2023/07/22 07:24:22;;;;;;;2.90;1.90;;;;;;;40.32;23.79;100228.90;105304;1258;71805;-64
2023/07/22 07:26:49;;;;;;;2.30;2.00;;;;;;;40.41;23.43;100228.52;105170;1259;61241;-63
2023/07/22 07:29:16;;;;;;;2.20;1.80;;;;;;;40.50;22.92;100228.94;105134;1259;61250;-63
2023/07/22 07:32:03;;;;;;;2.30;1.70;;;;;;;40.50;22.72;100230.18;104770;1261;67827;-63
2023/07/22 07:34:31;;;;;;;1.70;1.60;;;;;;;40.41;22.66;100225.09;105158;1257;61334;-63
2023/07/22 07:36:58;;;;;;;2.40;2.00;;;;;;;40.34;23.06;100222.96;105036;1257;64122;-64
2023/07/22 07:39:25;;;;;;;2.40;1.50;;;;;;;40.27;22.60;100216.93;105009;1257;61349;-67
2023/07/22 07:41:52;;;;;;;2.10;1.60;;;;;;;40.22;23.00;100213.57;105034;1257;61254;-63
2023/07/22 07:44:19;;;;;;;2.30;1.60;;;;;;;40.24;22.73;100210.92;104991;1257;65015;-67
2023/07/22 07:46:46;;;;;;;2.50;1.60;;;;;;;40.24;22.62;100208.27;105037;1261;61735;-63
2023/07/22 07:49:14;;;;;;;2.30;1.50;;;;;;;40.24;22.56;100209.20;105092;1257;62679;-63
2023/07/22 07:51:42;;;;;;;2.10;1.50;;;;;;;40.30;21.60;100208.05;105121;1258;61390;-64
2023/07/22 07:54:09;;;;;;;2.00;1.60;;;;;;;40.33;21.78;100204.39;105173;1260;61196;-63
2023/07/22 07:56:37;;;;;;;1.70;1.50;;;;;;;40.14;21.57;100205.26;105246;1257;64501;-65
2023/07/22 07:59:05;;;;;;;1.80;1.40;;;;;;;39.65;22.17;100210.00;105131;1260;61224;-63
2023/07/22 08:01:32;;;;;;;1.90;1.20;;;;;;;39.29;23.61;100211.63;105295;1261;64068;-67
2023/07/22 08:04:01;;;;;;;3.60;1.60;;;;;;;39.11;24.02;100215.61;105132;1262;61264;-63
2023/07/22 08:06:28;;;;;;;2.10;1.50;;;;;;;39.05;23.71;100220.09;105003;1257;61209;-68
2023/07/22 08:09:00;;;;;;;2.00;1.50;;;;;;;39.14;23.55;100219.77;105045;1255;66246;-62
2023/07/22 08:11:27;;;;;;;1.60;1.40;;;;;;;39.34;24.10;100223.13;105488;1259;61253;-65
2023/07/22 08:13:55;;;;;;;2.90;1.70;;;;;;;39.51;24.55;100222.77;105146;1259;64594;-63
2023/07/22 08:16:22;;;;;;;1.80;1.60;;;;;;;39.62;24.88;100223.07;105278;1257;61297;-66
2023/07/22 08:18:49;;;;;;;1.80;1.60;;;;;;;39.83;24.49;100219.70;105097;1259;60004;-63
2023/07/22 08:21:16;;;;;;;2.70;1.80;;;;;;;39.88;24.16;100222.85;105155;1259;66126;-63
2023/07/22 08:23:46;;;;;;;2.50;1.50;;;;;;;39.66;24.42;100224.90;105357;1259;61357;-66
2023/07/22 08:26:13;;;;;;;2.10;1.40;;;;;;;39.33;24.28;100225.45;105094;1257;64053;-63
2023/07/22 08:28:40;;;;;;;3.70;1.30;;;;;;;39.11;24.64;100228.55;105110;1258;61246;-64
2023/07/22 08:31:07;;;;;;;3.40;1.80;;;;;;;39.17;25.31;100224.15;105170;1259;61171;-63
2023/07/22 08:33:35;;;;;;;2.20;1.50;;;;;;;39.25;25.12;100226.10;105101;1259;66095;-67
2023/07/22 08:36:08;;;;;;;2.80;1.90;;;;;;;39.05;25.36;100233.55;105008;1259;61228;-62
2023/07/22 08:38:36;;;;;;;2.40;1.40;;;;;;;38.80;25.48;100229.17;105121;1258;62862;-64
2023/07/22 08:41:03;;;;;;;3.50;1.40;;;;;;;38.60;26.29;100220.88;105151;1257;61297;-64
2023/07/22 08:43:30;;;;;;;5.60;3.40;;;;;;;38.27;26.63;100222.54;105241;1259;61228;-66
2023/07/22 08:45:59;;;;;;;5.30;2.90;;;;;;;37.84;26.64;100221.67;105151;1257;64928;-63
2023/07/22 08:48:33;;;;;;;2.40;2.00;;;;;;;37.29;27.45;100218.58;105142;1260;61848;-65
2023/07/22 08:51:07;;;;;;;2.50;1.80;;;;;;;36.80;27.89;100211.54;105013;1260;64120;-63
2023/07/22 08:53:33;;;;;;;3.10;1.90;;;;;;;36.47;28.83;100207.66;105592;1258;61361;-64
2023/07/22 08:56:02;;;;;;;2.20;1.70;;;;;;;36.45;29.57;100208.72;105231;1260;61152;-64
2023/07/22 08:58:30;;;;;;;2.90;1.50;;;;;;;36.64;29.60;100203.89;105423;1257;65063;-68
2023/07/22 09:00:57;;;;;;;2.80;1.60;;;;;;;36.87;29.34;100198.86;105552;1257;61327;-64
2023/07/22 09:03:24;;;;;;;2.50;1.50;;;;;;;37.08;29.27;100191.45;105283;1257;64206;-65
2023/07/22 09:05:51;;;;;;;2.70;1.60;;;;;;;37.41;28.54;100189.11;105326;1262;61128;-65
2023/07/22 09:08:18;;;;;;;8.30;2.60;;;;;;;37.43;29.08;100186.58;105403;1256;61218;-67
2023/07/22 09:10:45;;;;;;;2.60;1.50;;;;;;;37.10;30.17;100185.34;107821;1255;66311;-65
2023/07/22 09:13:14;;;;;;;1.90;1.40;;;;;;;37.30;29.46;100182.32;105033;1257;61225;-68
2023/07/22 09:15:41;;;;;;;2.40;1.40;;;;;;;37.73;28.86;100177.05;105407;1260;64164;-64
2023/07/22 09:18:08;;;;;;;1.80;1.30;;;;;;;38.09;28.18;100181.02;105334;1262;61257;-65
2023/07/22 09:20:36;;;;;;;1.60;1.20;;;;;;;38.33;28.12;100180.44;105544;1257;61256;-65
2023/07/22 09:23:03;;;;;;;2.50;1.40;;;;;;;38.68;26.56;100179.17;105503;1257;66045;-65
2023/07/22 09:25:41;;;;;;;2.50;1.30;;;;;;;38.67;26.33;100178.78;105264;1262;61286;-65
2023/07/22 09:28:09;;;;;;;2.40;1.40;;;;;;;38.71;26.58;100173.83;105713;1257;63885;-69
2023/07/22 09:30:38;;;;;;;2.80;1.70;;;;;;;38.87;25.94;100182.86;105461;1258;61257;-65
2023/07/22 09:33:20;;;;;;;1.90;1.40;;;;;;;38.96;25.40;100185.36;105553;1257;61225;-64
2023/07/22 09:35:48;;;;;;;2.00;1.30;;;;;;;38.65;25.51;100186.06;105285;1268;65911;-65
2023/07/22 09:38:22;;;;;;;2.60;1.60;;;;;;;38.29;25.65;100178.91;105735;1259;61237;-67
2023/07/22 09:40:49;;;;;;;2.90;1.60;;;;;;;37.92;26.03;100173.82;105538;1260;62641;-63
2023/07/22 09:43:16;;;;;;;2.20;1.30;;;;;;;37.57;26.46;100177.85;105468;1260;61276;-64
2023/07/22 09:45:46;;;;;;;2.00;1.40;;;;;;;37.23;27.01;100178.95;105470;1256;61242;-64
2023/07/22 09:48:14;;;;;;;2.80;1.40;;;;;;;37.00;27.36;100176.12;105511;1259;65999;-64
2023/07/22 09:50:41;;;;;;;2.50;1.60;;;;;;;37.01;27.21;100170.32;105446;1260;66150;-65
2023/07/22 09:53:08;;;;;;;2.20;1.60;;;;;;;37.08;27.01;100170.42;105453;1259;62832;-68
2023/07/22 09:55:35;;;;;;;2.50;1.70;;;;;;;37.03;27.25;100168.02;105407;1257;61263;-64
2023/07/22 09:58:03;;;;;;;3.60;1.60;;;;;;;37.01;27.16;100168.08;105463;1259;61198;-67
2023/07/22 10:00:31;;;;;;;3.30;1.90;;;;;;;37.10;27.22;100170.29;105214;1257;64861;-64
2023/07/22 10:03:02;;;;;;;3.20;1.60;;;;;;;37.35;27.08;100167.88;105474;1256;61207;-66
2023/07/22 10:05:29;;;;;;;3.70;1.80;;;;;;;37.73;26.25;100173.09;105472;1260;62833;-64
2023/07/22 10:07:57;;;;;;;3.40;1.50;;;;;;;38.05;25.07;100177.24;105518;1259;61343;-64
2023/07/22 10:10:31;;;;;;;2.40;1.70;;;;;;;38.17;25.07;100180.95;105654;1259;61253;-64
2023/07/22 10:12:59;;;;;;;3.60;1.50;;;;;;;38.37;25.49;100177.23;105476;1257;65897;-65
2023/07/22 10:15:31;;;;;;;2.70;1.60;;;;;;;38.58;24.99;100178.22;105581;1257;61250;-65
2023/07/22 10:18:00;;;;;;;2.70;1.40;;;;;;;38.39;24.94;100172.73;105600;1269;64159;-66
2023/07/22 10:20:27;;;;;;;2.40;1.40;;;;;;;38.12;25.56;100170.48;105323;1260;61218;-65
2023/07/22 10:22:54;;;;;;;2.70;1.60;;;;;;;38.07;25.64;100172.75;105309;1257;61155;-64
2023/07/22 10:25:21;;;;;;;2.30;1.40;;;;;;;38.18;25.09;100172.27;105268;1257;66108;-64
2023/07/22 10:27:51;;;;;;;2.70;1.40;;;;;;;38.31;24.60;100174.97;105549;1257;61251;-68
2023/07/22 10:30:19;;;;;;;2.10;1.30;;;;;;;38.46;24.11;100177.33;105386;1259;64402;-67
2023/07/22 10:32:48;;;;;;;4.80;1.90;;;;;;;38.42;23.90;100172.70;105464;1259;61254;-64
2023/07/22 10:35:30;;;;;;;2.40;1.60;;;;;;;38.08;24.06;100170.36;105548;1259;61349;-64
2023/07/22 10:38:16;;;;;;;1.80;1.30;;;;;;;37.74;24.67;100173.42;105362;1259;65877;-64
2023/07/22 10:40:45;;;;;;;2.30;1.50;;;;;;;37.64;24.95;100180.04;105440;1260;61330;-64
2023/07/22 10:43:15;;;;;;;3.10;1.30;;;;;;;37.55;25.16;100176.03;105608;1257;63931;-64
2023/07/22 10:45:43;;;;;;;2.80;2.00;;;;;;;37.46;25.40;100170.55;105285;1262;61132;-67
2023/07/22 10:48:12;;;;;;;2.40;1.70;;;;;;;37.18;26.24;100172.14;105453;1259;61228;-65
2023/07/22 10:50:43;;;;;;;2.90;1.70;;;;;;;36.80;26.64;100167.93;105702;1257;66089;-64
2023/07/22 10:53:28;;;;;;;2.80;1.40;;;;;;;36.79;26.97;100172.48;105480;1258;60988;-66
2023/07/22 10:56:13;;;;;;;2.40;1.60;;;;;;;37.07;26.63;100176.92;105387;1257;63642;-64
2023/07/22 10:58:46;;;;;;;2.30;1.40;;;;;;;37.42;26.14;100163.88;105322;1260;61259;-64
2023/07/22 11:01:30;;;;;;;2.10;1.70;;;;;;;37.51;25.18;100154.08;105480;1259;61106;-64
2023/07/22 11:04:24;;;;;;;2.40;1.70;;;;;;;37.43;24.92;100146.27;105489;1261;66093;-65
2023/07/22 11:06:53;;;;;;;2.10;1.40;;;;;;;37.36;25.40;100146.69;105398;1259;61305;-67
2023/07/22 11:09:27;;;;;;;2.00;1.30;;;;;;;37.28;25.47;100150.23;105461;1259;64073;-64
2023/07/22 11:12:01;;;;;;;2.20;1.40;;;;;;;37.35;25.55;100144.89;105580;1257;61279;-63